Time;durP1;ratioP1;P1;durP2;ratioP2;P2;SDS_P1;SDS_P2;PMS_P1;PMS_P2;Temp;Humidity;BMP_temperature;BMP_pressure;BME280_temperature;BME280_humidity;BME280_pressure;Samples;Min_cycle;Max_cycle;Signal;HPM_P1;HPM_P2
2021/12/09 00:00:32;;;;;;;8.43;2.40;;;1.30;99.90;;;;;;2088815;28;20252;-69
2021/12/09 00:01:38;;;;;;;6.38;2.10;;;1.30;99.90;;;;;;2083419;28;20172;-70
2021/12/09 00:02:40;;;;;;;4.30;2.13;;;1.40;99.90;;;;;;2088962;28;20161;-70
2021/12/09 00:03:42;;;;;;;2.55;1.90;;;1.40;99.90;;;;;;2089537;28;20184;-70
2021/12/09 00:04:42;;;;;;;2.47;1.20;;;1.40;99.90;;;;;;2090404;28;20255;-70
2021/12/09 00:05:45;;;;;;;2.00;1.50;;;1.30;99.90;;;;;;2090299;28;20215;-70
2021/12/09 00:06:46;;;;;;;3.45;1.70;;;1.30;99.90;;;;;;2090039;28;20230;-71
2021/12/09 00:07:50;;;;;;;2.50;1.50;;;1.20;99.90;;;;;;2089660;28;20239;-70
2021/12/09 00:08:54;;;;;;;6.65;1.50;;;1.20;99.90;;;;;;2089684;28;20529;-70
2021/12/09 00:09:55;;;;;;;3.45;1.25;;;1.20;99.90;;;;;;2090714;28;20238;-70
2021/12/09 00:11:00;;;;;;;1.95;1.30;;;1.20;99.90;;;;;;2091156;28;20204;-71
2021/12/09 00:12:02;;;;;;;4.50;1.50;;;1.20;99.90;;;;;;2091069;28;20185;-71
2021/12/09 00:13:04;;;;;;;1.52;1.30;;;1.20;99.90;;;;;;2090486;28;20196;-71
2021/12/09 00:14:05;;;;;;;3.47;1.25;;;1.20;99.90;;;;;;2090540;28;20196;-71
2021/12/09 00:15:07;;;;;;;3.27;1.57;;;1.20;99.90;;;;;;2091013;28;20524;-71
2021/12/09 00:16:08;;;;;;;7.30;1.80;;;1.30;99.90;;;;;;2090336;28;20567;-71
2021/12/09 00:17:10;;;;;;;4.93;1.87;;;1.30;99.90;;;;;;2090237;28;20176;-71
2021/12/09 00:18:11;;;;;;;4.28;2.00;;;1.20;99.90;;;;;;2090333;28;20222;-70
2021/12/09 00:19:12;;;;;;;5.70;2.03;;;1.20;99.90;;;;;;2090367;28;20180;-71
2021/12/09 00:20:13;;;;;;;3.37;1.63;;;1.20;99.90;;;;;;2090216;28;20245;-71
2021/12/09 00:21:14;;;;;;;2.78;1.90;;;1.20;99.90;;;;;;2090507;28;20184;-71
2021/12/09 00:22:15;;;;;;;2.95;2.10;;;1.20;99.90;;;;;;2098636;28;20199;-71
2021/12/09 00:23:16;;;;;;;2.47;1.80;;;1.20;99.90;;;;;;2090560;28;20177;-71
2021/12/09 00:24:17;;;;;;;3.25;1.60;;;1.20;99.90;;;;;;2090179;28;20176;-71
2021/12/09 00:25:18;;;;;;;4.97;1.50;;;1.20;99.90;;;;;;2090345;28;20191;-71
2021/12/09 00:26:19;;;;;;;2.03;1.50;;;1.20;99.90;;;;;;2091140;28;20191;-71
2021/12/09 00:27:19;;;;;;;1.53;1.20;;;1.20;99.90;;;;;;2091014;28;20225;-71
2021/12/09 00:28:20;;;;;;;2.47;1.57;;;1.20;99.90;;;;;;2090897;28;20254;-71
2021/12/09 00:29:21;;;;;;;4.00;1.47;;;1.20;99.90;;;;;;2090240;28;20201;-71
2021/12/09 00:30:22;;;;;;;2.20;1.33;;;1.20;99.90;;;;;;2082039;28;20185;-71
2021/12/09 00:31:24;;;;;;;3.80;1.53;;;1.10;99.90;;;;;;2090251;28;20502;-71
2021/12/09 00:32:25;;;;;;;4.93;1.35;;;1.10;99.90;;;;;;2090379;28;20231;-71
2021/12/09 00:33:26;;;;;;;3.78;1.40;;;1.10;99.90;;;;;;2090364;28;20196;-71
2021/12/09 00:34:31;;;;;;;3.20;1.50;;;1.10;99.90;;;;;;2090185;28;20185;-71
2021/12/09 00:35:44;;;;;;;4.30;1.52;;;1.00;99.90;;;;;;2082572;28;20557;-71
2021/12/09 00:36:57;;;;;;;2.58;1.45;;;1.10;99.90;;;;;;2090254;28;20195;-70
2021/12/09 00:38:06;;;;;;;2.35;1.25;;;1.10;99.90;;;;;;2090275;28;20156;-70
2021/12/09 00:39:11;;;;;;;4.55;1.70;;;1.10;99.90;;;;;;2084687;28;20652;-71
2021/12/09 00:40:11;;;;;;;3.50;1.40;;;1.00;99.90;;;;;;2083470;28;20191;-70
2021/12/09 00:41:14;;;;;;;3.57;1.53;;;1.00;99.90;;;;;;2090189;28;20216;-70
2021/12/09 00:42:16;;;;;;;4.38;1.75;;;1.10;99.90;;;;;;2090126;28;20191;-70
2021/12/09 00:43:20;;;;;;;5.82;1.80;;;1.00;99.90;;;;;;2090116;28;20273;-71
2021/12/09 00:44:20;;;;;;;1.90;1.50;;;1.00;99.90;;;;;;2090178;28;20259;-71
2021/12/09 00:45:21;;;;;;;5.53;1.77;;;1.00;99.90;;;;;;2090184;28;20207;-71
2021/12/09 00:46:22;;;;;;;2.28;1.70;;;1.00;99.90;;;;;;2090146;28;20650;-70
2021/12/09 00:47:24;;;;;;;2.93;1.43;;;1.00;99.90;;;;;;2081774;28;20280;-70
2021/12/09 00:48:26;;;;;;;4.18;1.55;;;1.00;99.90;;;;;;2082035;28;20174;-71
2021/12/09 00:49:30;;;;;;;3.80;2.00;;;1.10;99.90;;;;;;2082176;28;20670;-70
2021/12/09 00:50:31;;;;;;;4.75;2.28;;;1.10;99.90;;;;;;2090229;28;20174;-70
2021/12/09 00:51:32;;;;;;;5.60;1.90;;;1.10;99.90;;;;;;2090144;28;20314;-70
2021/12/09 00:52:32;;;;;;;2.20;1.80;;;1.10;99.90;;;;;;2090133;28;20176;-71
2021/12/09 00:53:34;;;;;;;5.83;2.10;;;1.10;99.90;;;;;;2090103;28;20180;-71
2021/12/09 00:54:35;;;;;;;5.72;2.20;;;1.10;99.90;;;;;;2090126;28;20229;-70
2021/12/09 00:55:37;;;;;;;3.50;2.03;;;1.00;99.90;;;;;;2090083;28;20207;-71
2021/12/09 00:56:38;;;;;;;7.28;2.22;;;1.00;99.90;;;;;;2082006;28;20216;-71
2021/12/09 00:57:40;;;;;;;3.03;2.20;;;1.00;99.90;;;;;;2081767;28;20579;-71
2021/12/09 00:58:42;;;;;;;6.07;2.10;;;1.00;99.90;;;;;;2090099;28;20591;-71
2021/12/09 00:59:43;;;;;;;6.22;3.08;;;1.00;99.90;;;;;;2090559;28;20190;-71
2021/12/09 01:00:44;;;;;;;6.60;2.77;;;1.00;99.90;;;;;;2090538;28;20181;-70
2021/12/09 01:01:46;;;;;;;6.90;2.63;;;1.00;99.90;;;;;;2090046;28;20272;-71
2021/12/09 01:02:47;;;;;;;8.75;3.20;;;1.00;99.90;;;;;;2090057;28;20188;-70
2021/12/09 01:03:49;;;;;;;6.88;2.78;;;1.00;99.90;;;;;;2090525;28;20527;-71
2021/12/09 01:04:49;;;;;;;6.20;2.90;;;1.00;99.90;;;;;;2090055;28;20226;-70
2021/12/09 01:05:50;;;;;;;8.20;2.70;;;1.00;99.90;;;;;;2089851;28;20263;-71
2021/12/09 01:06:51;;;;;;;5.00;2.20;;;1.00;99.90;;;;;;2090575;28;20176;-70
2021/12/09 01:07:52;;;;;;;12.03;2.93;;;1.00;99.90;;;;;;2090612;28;20598;-70
2021/12/09 01:08:53;;;;;;;3.10;2.10;;;1.00;99.90;;;;;;2089892;28;20176;-71
2021/12/09 01:09:54;;;;;;;4.00;2.20;;;1.00;99.90;;;;;;2090002;28;20184;-71
2021/12/09 01:10:55;;;;;;;6.63;2.43;;;1.00;99.90;;;;;;2090537;28;20336;-71
2021/12/09 01:11:55;;;;;;;8.57;2.50;;;1.10;99.90;;;;;;2098134;28;20180;-71
2021/12/09 01:12:57;;;;;;;6.00;2.70;;;1.10;99.90;;;;;;2090133;28;20216;-71
2021/12/09 01:13:58;;;;;;;7.28;2.97;;;1.10;99.90;;;;;;2089975;28;20266;-70
2021/12/09 01:14:59;;;;;;;3.75;2.30;;;1.10;99.90;;;;;;2089359;28;20204;-71
2021/12/09 01:16:00;;;;;;;5.93;3.10;;;1.10;99.90;;;;;;2089678;28;20259;-71
2021/12/09 01:17:01;;;;;;;7.00;2.90;;;1.10;99.90;;;;;;2090359;28;20177;-70
2021/12/09 01:18:02;;;;;;;3.80;2.57;;;1.10;99.90;;;;;;2090510;28;20661;-71
2021/12/09 01:19:04;;;;;;;6.15;2.67;;;1.10;99.90;;;;;;2089818;28;20233;-70
2021/12/09 01:20:08;;;;;;;7.15;2.53;;;1.10;99.90;;;;;;2089773;28;20192;-71
2021/12/09 01:21:10;;;;;;;6.32;3.25;;;1.10;99.90;;;;;;2089955;28;20227;-71
2021/12/09 01:22:11;;;;;;;5.40;2.20;;;1.00;99.90;;;;;;2081813;28;20235;-71
2021/12/09 01:23:12;;;;;;;8.17;2.77;;;1.00;99.90;;;;;;2089731;28;20203;-71
2021/12/09 01:24:13;;;;;;;7.13;2.50;;;1.00;99.90;;;;;;2090454;28;20176;-71
2021/12/09 01:25:17;;;;;;;5.97;2.80;;;1.00;99.90;;;;;;2090121;28;20504;-71
2021/12/09 01:26:18;;;;;;;3.55;2.42;;;1.00;99.90;;;;;;2089839;28;20656;-70
2021/12/09 01:27:18;;;;;;;8.23;2.80;;;1.00;99.90;;;;;;2089707;28;20204;-70
2021/12/09 01:28:25;;;;;;;4.23;3.03;;;1.00;99.90;;;;;;2089802;28;20249;-70
2021/12/09 01:29:38;;;;;;;4.80;2.38;;;1.10;99.90;;;;;;2089964;28;20205;-70
2021/12/09 01:30:39;;;;;;;8.23;2.85;;;1.00;99.90;;;;;;2090438;28;20750;-71
2021/12/09 01:31:41;;;;;;;2.33;1.63;;;1.00;99.90;;;;;;2089752;28;20177;-75
2021/12/09 01:32:49;;;;;;;3.70;1.90;;;1.00;99.90;;;;;;2081775;28;20717;-71
2021/12/09 01:33:52;;;;;;;7.95;2.30;;;1.00;99.90;;;;;;2089819;28;20218;-71
2021/12/09 01:34:53;;;;;;;5.63;2.28;;;1.00;99.90;;;;;;2089854;28;20780;-70
2021/12/09 01:35:54;;;;;;;6.20;2.00;;;1.10;99.90;;;;;;2089718;28;20181;-71
2021/12/09 01:36:55;;;;;;;6.63;2.23;;;1.00;99.90;;;;;;2089654;28;20180;-70
2021/12/09 01:37:59;;;;;;;4.77;2.50;;;1.00;99.90;;;;;;2081492;28;20185;-70
2021/12/09 01:39:01;;;;;;;4.72;2.15;;;1.00;99.90;;;;;;2082024;28;20173;-71
2021/12/09 01:40:04;;;;;;;3.67;2.00;;;1.00;99.90;;;;;;2081973;28;20173;-70
2021/12/09 01:41:05;;;;;;;4.45;2.50;;;1.00;99.90;;;;;;2081539;28;20560;-74
2021/12/09 01:42:05;;;;;;;3.80;1.83;;;0.90;99.90;;;;;;2081439;28;20197;-71
2021/12/09 01:43:06;;;;;;;8.80;1.87;;;1.00;99.90;;;;;;2089614;28;20593;-71
2021/12/09 01:44:07;;;;;;;3.88;1.70;;;0.90;99.90;;;;;;2089663;28;20361;-71
2021/12/09 01:45:09;;;;;;;6.30;1.97;;;1.00;99.90;;;;;;2081491;28;20189;-71
2021/12/09 01:46:13;;;;;;;5.80;1.77;;;1.00;99.90;;;;;;2081417;28;20183;-71
2021/12/09 01:47:14;;;;;;;4.07;1.80;;;1.00;99.90;;;;;;2081594;28;20283;-70
2021/12/09 01:48:16;;;;;;;4.27;1.70;;;1.00;99.90;;;;;;2089581;28;20184;-70
2021/12/09 01:49:17;;;;;;;4.93;1.77;;;1.00;99.90;;;;;;2090219;28;20672;-71
2021/12/09 01:50:19;;;;;;;2.72;1.70;;;0.90;99.90;;;;;;2089382;28;20275;-71
2021/12/09 01:51:20;;;;;;;5.65;2.67;;;0.90;99.90;;;;;;2089670;28;20181;-71
2021/12/09 01:52:21;;;;;;;5.72;1.80;;;0.90;99.90;;;;;;2089503;28;20707;-70
2021/12/09 01:53:22;;;;;;;5.50;2.13;;;0.90;99.90;;;;;;2089642;28;20199;-70
2021/12/09 01:54:25;;;;;;;6.47;1.97;;;0.90;99.90;;;;;;2090314;28;20444;-70
2021/12/09 01:55:26;;;;;;;4.53;2.15;;;0.90;99.90;;;;;;2090273;28;20211;-71
2021/12/09 01:56:28;;;;;;;5.72;1.70;;;1.00;99.90;;;;;;2089655;28;20176;-71
2021/12/09 01:57:29;;;;;;;4.45;1.88;;;1.00;99.90;;;;;;2081510;28;20189;-71
2021/12/09 01:58:30;;;;;;;2.97;2.00;;;1.00;99.90;;;;;;2089534;28;20238;-71
2021/12/09 01:59:30;;;;;;;3.53;1.80;;;1.00;99.90;;;;;;2089679;28;20706;-70
2021/12/09 02:00:32;;;;;;;4.83;1.83;;;1.00;99.90;;;;;;2089321;28;20551;-70
2021/12/09 02:01:34;;;;;;;3.35;1.88;;;1.00;99.90;;;;;;2090194;28;20173;-70
2021/12/09 02:02:35;;;;;;;4.28;2.15;;;0.90;99.90;;;;;;2090012;28;20275;-71
2021/12/09 02:03:36;;;;;;;8.60;1.70;;;0.90;99.90;;;;;;2090143;28;20180;-70
2021/12/09 02:04:37;;;;;;;5.13;1.77;;;0.90;99.90;;;;;;2089501;28;20180;-71
2021/12/09 02:05:40;;;;;;;3.10;1.80;;;0.90;99.90;;;;;;2089446;28;20266;-71
2021/12/09 02:06:43;;;;;;;4.53;2.13;;;0.90;99.90;;;;;;2089164;28;20205;-70
2021/12/09 02:07:45;;;;;;;3.85;1.63;;;0.90;99.90;;;;;;2081458;28;20232;-71
2021/12/09 02:08:45;;;;;;;7.35;2.72;;;0.80;99.90;;;;;;2081272;28;20224;-71
2021/12/09 02:09:46;;;;;;;6.23;2.27;;;0.80;99.90;;;;;;2089428;28;20251;-70
2021/12/09 02:10:49;;;;;;;3.63;1.70;;;0.80;99.90;;;;;;2089869;28;20189;-70
2021/12/09 02:11:50;;;;;;;2.72;1.65;;;0.80;99.90;;;;;;2090123;28;20184;-70
2021/12/09 02:12:52;;;;;;;7.55;2.00;;;0.80;99.90;;;;;;2089918;28;20259;-70
2021/12/09 02:13:57;;;;;;;7.32;1.90;;;0.70;99.90;;;;;;2090134;28;20645;-70
2021/12/09 02:15:00;;;;;;;4.20;1.92;;;0.70;99.90;;;;;;2089494;28;20192;-71
2021/12/09 02:16:02;;;;;;;7.18;2.58;;;0.70;99.90;;;;;;2082165;28;20185;-70
2021/12/09 02:17:03;;;;;;;5.97;2.00;;;0.80;99.90;;;;;;2081496;28;20230;-70
2021/12/09 02:18:06;;;;;;;7.03;2.05;;;0.70;99.90;;;;;;2081357;28;20188;-72
2021/12/09 02:19:10;;;;;;;2.53;1.83;;;0.80;99.90;;;;;;2089386;28;20250;-71
2021/12/09 02:20:11;;;;;;;4.32;1.70;;;0.80;99.90;;;;;;2089340;28;20184;-70
2021/12/09 02:21:20;;;;;;;2.28;1.75;;;0.80;99.90;;;;;;2081523;28;20556;-70
2021/12/09 02:22:20;;;;;;;5.93;1.70;;;0.80;99.90;;;;;;2082299;28;20248;-70
2021/12/09 02:23:21;;;;;;;6.50;2.00;;;0.70;99.90;;;;;;2089339;28;20176;-70
2021/12/09 02:24:22;;;;;;;4.80;1.57;;;0.70;99.90;;;;;;2090047;28;20176;-71
2021/12/09 02:25:22;;;;;;;4.53;1.70;;;0.80;99.90;;;;;;2090057;28;20180;-71
2021/12/09 02:26:30;;;;;;;6.10;1.97;;;0.80;99.90;;;;;;2089919;28;20557;-71
2021/12/09 02:27:31;;;;;;;2.75;1.55;;;0.80;99.90;;;;;;2097536;28;20235;-70
2021/12/09 02:28:32;;;;;;;2.00;1.77;;;0.80;99.90;;;;;;2097562;28;20179;-71
2021/12/09 02:29:33;;;;;;;6.17;1.60;;;0.80;99.90;;;;;;2089957;28;20235;-70
2021/12/09 02:30:34;;;;;;;4.97;1.70;;;0.80;99.90;;;;;;2090060;28;20221;-71
2021/12/09 02:31:36;;;;;;;7.00;2.33;;;0.80;99.90;;;;;;2097882;28;20237;-71
2021/12/09 02:32:36;;;;;;;5.75;2.40;;;0.80;99.90;;;;;;2089563;28;20181;-71
2021/12/09 02:33:37;;;;;;;2.57;1.63;;;0.80;99.90;;;;;;2089202;28;20180;-70
2021/12/09 02:34:38;;;;;;;4.03;1.83;;;0.80;99.90;;;;;;2089412;28;20246;-70
2021/12/09 02:35:39;;;;;;;4.33;2.03;;;0.80;99.80;;;;;;2089448;28;20181;-70
2021/12/09 02:36:42;;;;;;;4.40;1.90;;;0.70;99.90;;;;;;2089245;28;20200;-70
2021/12/09 02:37:44;;;;;;;2.47;1.73;;;0.70;99.90;;;;;;2081201;28;20197;-70
2021/12/09 02:38:45;;;;;;;6.00;2.00;;;0.70;99.90;;;;;;2089236;28;20218;-71
2021/12/09 02:39:46;;;;;;;6.15;2.38;;;0.70;99.90;;;;;;2089239;28;20211;-70
2021/12/09 02:40:48;;;;;;;5.87;2.20;;;0.70;99.90;;;;;;2081018;28;20677;-70
2021/12/09 02:41:50;;;;;;;4.15;1.80;;;0.70;99.90;;;;;;2089272;28;20271;-69
2021/12/09 02:42:51;;;;;;;5.97;2.70;;;0.70;99.90;;;;;;2089316;28;20204;-70
2021/12/09 02:43:57;;;;;;;7.40;2.20;;;0.70;99.90;;;;;;2080952;28;20715;-70
2021/12/09 02:44:57;;;;;;;5.88;1.90;;;0.70;99.90;;;;;;2089470;28;20419;-70
2021/12/09 02:46:00;;;;;;;3.37;1.97;;;0.80;99.90;;;;;;2097300;28;20686;-71
2021/12/09 02:47:01;;;;;;;5.25;2.00;;;0.70;99.90;;;;;;2097184;28;20183;-71
2021/12/09 02:48:02;;;;;;;8.33;2.30;;;0.70;99.90;;;;;;2089797;28;20180;-70
2021/12/09 02:49:14;;;;;;;5.35;1.80;;;0.70;99.90;;;;;;2089095;28;20177;-70
2021/12/09 02:50:14;;;;;;;6.47;2.20;;;0.70;99.90;;;;;;2082331;28;20173;-70
2021/12/09 02:51:15;;;;;;;3.23;2.20;;;0.70;99.90;;;;;;2089484;28;20269;-70
2021/12/09 02:52:16;;;;;;;4.07;1.95;;;0.80;99.90;;;;;;2089277;28;20168;-70
2021/12/09 02:53:18;;;;;;;3.43;1.87;;;0.70;99.90;;;;;;2081024;28;20189;-70
2021/12/09 02:54:21;;;;;;;6.22;1.92;;;0.70;99.90;;;;;;2089041;28;20173;-70
2021/12/09 02:55:22;;;;;;;4.13;2.08;;;0.70;99.90;;;;;;2089048;28;20219;-70
2021/12/09 02:56:22;;;;;;;3.83;1.60;;;0.70;99.90;;;;;;2080877;28;20180;-70
2021/12/09 02:57:23;;;;;;;5.93;2.20;;;0.70;99.90;;;;;;2080797;28;20459;-70
2021/12/09 02:58:24;;;;;;;3.63;1.73;;;0.70;99.90;;;;;;2080852;28;20178;-70
2021/12/09 02:59:25;;;;;;;7.30;1.80;;;0.70;99.90;;;;;;2080923;28;20220;-69
2021/12/09 03:00:26;;;;;;;3.80;2.00;;;0.70;99.90;;;;;;2080840;28;20179;-69
2021/12/09 03:01:34;;;;;;;6.10;2.10;;;0.60;99.90;;;;;;2089149;28;20679;-69
2021/12/09 03:02:36;;;;;;;5.90;2.00;;;0.70;99.90;;;;;;2089129;28;20658;-70
2021/12/09 03:03:37;;;;;;;5.30;1.60;;;0.60;99.90;;;;;;2089138;28;20188;-69
2021/12/09 03:04:49;;;;;;;2.83;1.67;;;0.60;99.90;;;;;;2089643;28;20738;-70
2021/12/09 03:05:58;;;;;;;3.13;1.60;;;0.60;99.90;;;;;;2089037;28;20573;-70
2021/12/09 03:06:59;;;;;;;5.63;1.83;;;0.70;99.90;;;;;;2081946;28;20333;-70
2021/12/09 03:08:01;;;;;;;4.73;1.73;;;0.70;99.90;;;;;;2089085;28;20703;-71
2021/12/09 03:09:11;;;;;;;4.00;1.50;;;0.70;99.90;;;;;;2089652;28;20621;-69
2021/12/09 03:10:24;;;;;;;3.45;1.63;;;0.70;99.90;;;;;;2089565;28;20200;-69
2021/12/09 03:11:25;;;;;;;5.30;1.63;;;0.70;99.90;;;;;;2089838;28;20165;-70
2021/12/09 03:12:32;;;;;;;3.67;2.37;;;0.60;99.90;;;;;;2089181;28;20573;-70
2021/12/09 03:13:33;;;;;;;4.32;1.67;;;0.60;99.90;;;;;;2081559;28;20251;-70
2021/12/09 03:14:34;;;;;;;5.15;1.90;;;0.60;99.90;;;;;;2080882;28;20177;-69
2021/12/09 03:15:34;;;;;;;6.77;1.80;;;0.60;99.90;;;;;;2088914;28;20180;-69
2021/12/09 03:16:36;;;;;;;5.33;1.83;;;0.60;99.90;;;;;;2089545;28;20183;-71
2021/12/09 03:17:39;;;;;;;2.78;1.67;;;0.60;99.90;;;;;;2088899;28;20203;-70
2021/12/09 03:18:45;;;;;;;4.43;1.60;;;0.60;99.90;;;;;;2080975;28;20177;-70
2021/12/09 03:19:47;;;;;;;5.57;1.63;;;0.60;99.90;;;;;;2089139;28;20175;-69
2021/12/09 03:20:48;;;;;;;3.92;1.88;;;0.60;99.90;;;;;;2088927;28;20185;-69
2021/12/09 03:21:49;;;;;;;5.70;1.63;;;0.60;99.90;;;;;;2089034;28;20218;-70
2021/12/09 03:22:50;;;;;;;3.70;1.70;;;0.60;99.90;;;;;;2089589;28;20176;-70
2021/12/09 03:23:52;;;;;;;4.60;2.27;;;0.60;99.90;;;;;;2088928;28;20185;-70
2021/12/09 03:24:53;;;;;;;7.22;1.85;;;0.60;99.90;;;;;;2081009;28;20190;-69
2021/12/09 03:25:54;;;;;;;6.20;1.83;;;0.60;99.90;;;;;;2089083;28;20188;-70
2021/12/09 03:26:58;;;;;;;5.50;2.07;;;0.60;99.90;;;;;;2088768;28;20256;-69
2021/12/09 03:27:59;;;;;;;3.90;1.70;;;0.60;99.90;;;;;;2072903;28;20186;-70
2021/12/09 03:29:07;;;;;;;3.60;2.00;;;0.70;99.90;;;;;;2064408;28;20192;-70
2021/12/09 03:30:12;;;;;;;7.82;2.08;;;0.70;99.90;;;;;;2081751;28;20180;-69
2021/12/09 03:31:12;;;;;;;6.82;1.83;;;0.60;99.90;;;;;;2088962;28;20200;-70
2021/12/09 03:32:17;;;;;;;3.37;2.00;;;0.60;99.90;;;;;;2088763;28;20681;-70
2021/12/09 03:33:18;;;;;;;2.83;1.90;;;0.60;99.90;;;;;;2089277;28;20703;-70
2021/12/09 03:34:24;;;;;;;5.53;2.00;;;0.60;99.90;;;;;;2089567;28;20180;-69
2021/12/09 03:35:25;;;;;;;4.35;2.10;;;0.60;99.90;;;;;;2089087;28;20201;-70
2021/12/09 03:36:28;;;;;;;3.77;1.90;;;0.60;99.90;;;;;;2080719;28;20177;-70
2021/12/09 03:37:28;;;;;;;4.25;1.88;;;0.60;99.90;;;;;;2080896;28;20221;-70
2021/12/09 03:38:30;;;;;;;5.33;2.03;;;0.60;99.90;;;;;;2081416;28;20192;-70
2021/12/09 03:39:36;;;;;;;5.30;2.33;;;0.60;99.90;;;;;;2082539;28;20537;-69
2021/12/09 03:40:37;;;;;;;6.82;2.10;;;0.60;99.90;;;;;;2074766;28;20209;-70
2021/12/09 03:41:38;;;;;;;3.87;1.90;;;0.60;99.90;;;;;;2074131;28;20186;-69
2021/12/09 03:42:39;;;;;;;4.05;1.80;;;0.60;99.90;;;;;;2074489;28;20188;-70
2021/12/09 03:43:40;;;;;;;5.93;2.30;;;0.60;99.90;;;;;;2082606;28;20185;-69
2021/12/09 03:44:43;;;;;;;5.27;2.70;;;0.60;99.90;;;;;;2090687;28;20255;-69
2021/12/09 03:45:43;;;;;;;6.13;1.83;;;0.60;99.90;;;;;;2091296;28;20275;-70
2021/12/09 03:46:45;;;;;;;6.90;2.00;;;0.60;99.90;;;;;;2091199;28;20183;-70
2021/12/09 03:47:46;;;;;;;5.18;1.80;;;0.60;99.90;;;;;;2090486;28;20291;-70
2021/12/09 03:48:47;;;;;;;6.70;2.13;;;0.60;99.90;;;;;;2082287;28;20186;-70
2021/12/09 03:49:48;;;;;;;5.57;2.00;;;0.60;99.90;;;;;;2090530;28;20297;-70
2021/12/09 03:50:50;;;;;;;2.88;2.08;;;0.60;99.90;;;;;;2090074;28;20430;-70
2021/12/09 03:51:52;;;;;;;3.83;2.10;;;0.60;99.90;;;;;;2090497;28;20192;-70
2021/12/09 03:52:53;;;;;;;7.93;2.35;;;0.60;99.90;;;;;;2082632;28;20176;-69
2021/12/09 03:53:54;;;;;;;5.90;2.30;;;0.70;99.90;;;;;;2090586;28;20619;-70
2021/12/09 03:54:56;;;;;;;5.17;2.20;;;0.60;99.90;;;;;;2091134;28;20603;-70
2021/12/09 03:55:57;;;;;;;6.00;1.95;;;0.60;99.90;;;;;;2090856;28;20183;-70
2021/12/09 03:56:57;;;;;;;2.72;2.00;;;0.60;99.90;;;;;;2090384;28;20211;-69
2021/12/09 03:57:58;;;;;;;3.73;1.40;;;0.70;99.90;;;;;;2090521;28;20259;-70
2021/12/09 03:58:59;;;;;;;2.53;2.23;;;0.60;99.70;;;;;;2090939;28;20249;-70
2021/12/09 03:59:59;;;;;;;4.53;1.63;;;0.60;99.80;;;;;;2098624;28;20179;-69
2021/12/09 04:01:00;;;;;;;4.43;2.10;;;0.60;99.90;;;;;;2090470;28;20739;-69
2021/12/09 04:02:01;;;;;;;4.70;1.90;;;0.60;99.90;;;;;;2090548;28;20180;-70
2021/12/09 04:03:02;;;;;;;5.10;2.10;;;0.60;99.90;;;;;;2082243;28;20259;-69
2021/12/09 04:04:04;;;;;;;2.78;1.95;;;0.60;99.90;;;;;;2090498;28;20642;-70
2021/12/09 04:05:07;;;;;;;6.45;2.03;;;0.60;99.90;;;;;;2090461;28;20187;-70
2021/12/09 04:06:07;;;;;;;3.53;2.00;;;0.60;99.90;;;;;;2090471;28;20238;-69
2021/12/09 04:07:08;;;;;;;3.23;1.80;;;0.60;99.90;;;;;;2090359;28;20216;-69
2021/12/09 04:08:09;;;;;;;3.83;1.93;;;0.70;99.90;;;;;;2082230;28;20181;-69
2021/12/09 04:09:13;;;;;;;6.70;2.27;;;0.70;99.90;;;;;;2090259;28;20552;-70
2021/12/09 04:10:14;;;;;;;5.28;2.00;;;0.70;99.90;;;;;;2090400;28;20176;-70
2021/12/09 04:11:18;;;;;;;4.47;2.08;;;0.70;99.90;;;;;;2082292;28;20736;-70
2021/12/09 04:12:19;;;;;;;5.32;2.00;;;0.70;99.90;;;;;;2082498;28;20638;-69
2021/12/09 04:13:20;;;;;;;4.40;2.30;;;0.70;99.90;;;;;;2090431;28;20177;-70
2021/12/09 04:14:21;;;;;;;4.40;2.30;;;0.70;99.90;;;;;;2090946;28;20173;-70
2021/12/09 04:15:22;;;;;;;4.65;1.95;;;0.70;99.90;;;;;;2098652;28;20183;-70
2021/12/09 04:16:23;;;;;;;6.20;2.20;;;0.60;99.90;;;;;;2098596;28;20329;-70
2021/12/09 04:17:24;;;;;;;5.20;2.10;;;0.60;99.90;;;;;;2090237;28;20250;-70
2021/12/09 04:18:24;;;;;;;6.77;2.33;;;0.70;99.90;;;;;;2090421;28;20177;-69
2021/12/09 04:19:25;;;;;;;6.10;2.10;;;0.70;99.90;;;;;;2090520;28;20226;-70
2021/12/09 04:20:27;;;;;;;3.67;1.97;;;0.60;99.90;;;;;;2081892;28;20180;-70
2021/12/09 04:21:28;;;;;;;5.35;2.00;;;0.70;99.90;;;;;;2090389;28;20184;-70
2021/12/09 04:22:28;;;;;;;6.20;2.22;;;0.70;99.90;;;;;;2098525;28;20187;-69
2021/12/09 04:23:30;;;;;;;5.27;1.70;;;0.60;99.90;;;;;;2098684;28;20645;-69
2021/12/09 04:24:31;;;;;;;3.33;2.17;;;0.70;99.90;;;;;;2090328;28;20651;-69
2021/12/09 04:25:33;;;;;;;3.30;1.90;;;0.70;99.90;;;;;;2090247;28;20183;-70
2021/12/09 04:26:37;;;;;;;6.18;1.88;;;0.70;99.90;;;;;;2082281;28;20189;-70
2021/12/09 04:27:37;;;;;;;6.93;2.00;;;0.60;99.90;;;;;;2090221;28;20550;-69
2021/12/09 04:28:39;;;;;;;3.87;1.70;;;0.70;99.90;;;;;;2090819;28;20187;-69
2021/12/09 04:29:40;;;;;;;3.75;1.95;;;0.70;99.90;;;;;;2090347;28;20204;-69
2021/12/09 04:30:41;;;;;;;3.87;1.80;;;0.70;99.90;;;;;;2090150;28;20665;-69
2021/12/09 04:31:43;;;;;;;2.20;1.70;;;0.70;99.90;;;;;;2090323;28;20631;-69
2021/12/09 04:32:45;;;;;;;3.28;1.95;;;0.70;99.90;;;;;;2082214;28;20243;-69
2021/12/09 04:33:47;;;;;;;5.93;2.13;;;0.70;99.90;;;;;;2082187;28;20251;-69
2021/12/09 04:34:50;;;;;;;3.92;2.00;;;0.70;99.90;;;;;;2090232;28;20649;-69
2021/12/09 04:35:51;;;;;;;2.88;1.83;;;0.70;99.90;;;;;;2090903;28;20204;-69
2021/12/09 04:36:52;;;;;;;6.33;1.93;;;0.70;99.90;;;;;;2091375;28;20657;-69
2021/12/09 04:37:52;;;;;;;2.53;1.77;;;0.70;99.90;;;;;;2091469;28;20219;-69
2021/12/09 04:38:54;;;;;;;2.83;1.40;;;0.70;99.90;;;;;;2091046;28;20204;-69
2021/12/09 04:39:55;;;;;;;2.30;1.65;;;0.60;99.90;;;;;;2090246;28;20203;-69
2021/12/09 04:40:56;;;;;;;4.37;1.77;;;0.70;99.90;;;;;;2090214;28;20212;-69
2021/12/09 04:41:56;;;;;;;4.63;1.50;;;0.60;99.90;;;;;;2090243;28;20314;-70
2021/12/09 04:43:00;;;;;;;3.83;1.77;;;0.70;99.90;;;;;;2090164;28;20211;-69
2021/12/09 04:44:01;;;;;;;6.68;1.88;;;0.70;99.90;;;;;;2090252;28;20176;-69
2021/12/09 04:45:03;;;;;;;5.87;2.13;;;0.70;99.90;;;;;;2090312;28;20184;-69
2021/12/09 04:46:04;;;;;;;5.43;2.33;;;0.70;99.90;;;;;;2090191;28;20638;-69
2021/12/09 04:47:04;;;;;;;5.00;1.80;;;0.70;99.90;;;;;;2090101;28;20188;-69
2021/12/09 04:48:06;;;;;;;2.13;1.43;;;0.70;99.90;;;;;;2090727;28;20192;-69
2021/12/09 04:49:07;;;;;;;5.95;2.15;;;0.70;99.90;;;;;;2090700;28;20180;-69
2021/12/09 04:50:10;;;;;;;4.17;1.80;;;0.70;99.90;;;;;;2090567;28;20194;-69
2021/12/09 04:51:11;;;;;;;4.55;1.55;;;0.70;99.90;;;;;;2090730;28;20706;-69
2021/12/09 04:52:12;;;;;;;6.07;1.95;;;0.70;99.90;;;;;;2090179;28;20188;-69
2021/12/09 04:53:12;;;;;;;2.97;1.83;;;0.70;99.90;;;;;;2081793;28;20187;-69
2021/12/09 04:54:13;;;;;;;4.87;2.20;;;0.70;99.90;;;;;;2090149;28;20181;-69
2021/12/09 04:55:14;;;;;;;2.35;1.60;;;0.70;99.90;;;;;;2090024;28;20210;-69
2021/12/09 04:56:15;;;;;;;3.13;1.83;;;0.70;99.90;;;;;;2082079;28;20208;-70
2021/12/09 04:57:16;;;;;;;4.93;2.00;;;0.70;99.90;;;;;;2089878;28;20199;-69
2021/12/09 04:58:16;;;;;;;7.00;2.30;;;0.70;99.90;;;;;;2090688;28;20173;-70
2021/12/09 04:59:17;;;;;;;2.57;1.77;;;0.70;99.90;;;;;;2090595;28;20172;-70
2021/12/09 05:00:23;;;;;;;2.70;1.70;;;0.80;99.90;;;;;;2089997;28;20271;-70
2021/12/09 05:01:24;;;;;;;4.82;1.70;;;0.70;99.90;;;;;;2082619;28;20185;-70
2021/12/09 05:02:37;;;;;;;4.67;2.03;;;0.80;99.90;;;;;;2081796;28;20263;-69
2021/12/09 05:03:38;;;;;;;4.95;1.98;;;0.80;99.90;;;;;;2083626;28;20659;-69
2021/12/09 05:04:39;;;;;;;5.33;1.80;;;0.70;99.90;;;;;;2090221;28;20196;-70
2021/12/09 05:05:46;;;;;;;4.50;1.70;;;0.70;99.90;;;;;;2090503;28;20603;-69
2021/12/09 05:06:47;;;;;;;3.83;1.67;;;0.70;99.90;;;;;;2090045;28;20173;-70
2021/12/09 05:07:48;;;;;;;2.87;1.70;;;0.60;99.90;;;;;;2081542;28;20228;-69
2021/12/09 05:08:49;;;;;;;4.63;1.77;;;0.70;99.90;;;;;;2081796;28;20188;-69
2021/12/09 05:09:51;;;;;;;2.00;1.40;;;0.70;99.90;;;;;;2081647;28;20205;-70
2021/12/09 05:11:06;;;;;;;2.45;1.70;;;0.70;99.90;;;;;;2089825;28;20263;-69
2021/12/09 05:12:08;;;;;;;6.70;1.65;;;0.70;99.90;;;;;;2089937;28;20172;-69
2021/12/09 05:13:09;;;;;;;3.65;1.90;;;0.70;99.90;;;;;;2083075;28;20183;-70
2021/12/09 05:14:09;;;;;;;3.90;1.70;;;0.70;99.90;;;;;;2089881;28;20563;-69
2021/12/09 05:15:11;;;;;;;8.33;1.70;;;0.70;99.90;;;;;;2090516;28;20168;-69
2021/12/09 05:16:11;;;;;;;2.10;1.50;;;0.70;99.80;;;;;;2089868;28;20183;-69
2021/12/09 05:17:12;;;;;;;2.50;1.43;;;0.80;99.80;;;;;;2089722;28;20195;-69
2021/12/09 05:18:15;;;;;;;3.70;1.70;;;0.80;99.70;;;;;;2089880;28;20259;-70
2021/12/09 05:19:16;;;;;;;2.50;1.40;;;0.80;99.60;;;;;;2089842;28;20650;-69
2021/12/09 05:20:16;;;;;;;5.27;2.80;;;0.80;99.60;;;;;;2089570;28;20180;-70
2021/12/09 05:21:17;;;;;;;4.07;1.50;;;0.80;99.70;;;;;;2089958;28;20191;-69
2021/12/09 05:22:18;;;;;;;4.73;1.97;;;0.80;99.60;;;;;;2090265;28;20230;-68
2021/12/09 05:23:22;;;;;;;5.85;2.05;;;0.80;99.50;;;;;;2089831;28;20664;-69
2021/12/09 05:24:23;;;;;;;5.57;2.42;;;0.80;99.60;;;;;;2089687;28;20176;-69
2021/12/09 05:25:24;;;;;;;3.63;2.20;;;0.80;99.60;;;;;;2089809;28;20708;-69
2021/12/09 05:26:29;;;;;;;3.57;2.27;;;0.80;99.60;;;;;;2089802;28;20183;-69
2021/12/09 05:27:30;;;;;;;2.88;2.17;;;0.80;99.70;;;;;;2089716;28;20197;-69